Time;durP1;ratioP1;P1;durP2;ratioP2;P2;SDS_P1;SDS_P2;PMS_P1;PMS_P2;Temp;Humidity;BMP_temperature;BMP_pressure;BME280_temperature;BME280_humidity;BME280_pressure;Samples;Min_cycle;Max_cycle;Signal;HPM_P1;HPM_P2
2022/01/08 00:00:39;;;;;;;4.90;4.10;;;;;;;-2.10;100.00;92468.84;2099338;28;20020;-83
2022/01/08 00:01:42;;;;;;;4.63;4.13;;;;;;;-1.84;100.00;92463.63;2090848;28;20470;-82
2022/01/08 00:02:44;;;;;;;5.93;3.88;;;;;;;-1.77;100.00;92458.47;2098669;28;20802;-82
2022/01/08 00:03:51;;;;;;;4.93;3.85;;;;;;;-1.66;100.00;92463.84;2098432;28;20024;-81
2022/01/08 00:04:52;;;;;;;4.05;3.70;;;;;;;-1.46;100.00;92455.84;2099003;28;20099;-82
2022/01/08 00:05:56;;;;;;;5.10;4.00;;;;;;;-1.64;100.00;92459.00;2098352;28;20465;-82
2022/01/08 00:06:58;;;;;;;5.05;3.90;;;;;;;-1.63;100.00;92457.88;2082062;28;20021;-81
2022/01/08 00:07:59;;;;;;;3.65;3.35;;;;;;;-1.62;100.00;92456.78;2073634;28;20018;-83
2022/01/08 00:09:00;;;;;;;4.75;3.78;;;;;;;-1.62;100.00;92451.56;2088274;28;20311;-83
2022/01/08 00:10:01;;;;;;;5.03;3.90;;;;;;;-1.73;100.00;92453.28;2097431;28;20040;-83
2022/01/08 00:11:02;;;;;;;4.78;3.50;;;;;;;-1.76;100.00;92446.09;2106719;28;20094;-82
2022/01/08 00:12:04;;;;;;;3.50;3.20;;;;;;;-1.78;100.00;92450.97;2106703;28;20020;-81
2022/01/08 00:13:05;;;;;;;4.22;3.75;;;;;;;-1.57;100.00;92455.72;2106641;28;20031;-83
2022/01/08 00:14:07;;;;;;;4.28;3.25;;;;;;;-1.63;100.00;92444.03;2106731;28;20023;-82
2022/01/08 00:15:09;;;;;;;3.65;3.33;;;;;;;-1.78;100.00;92449.09;2106194;28;20023;-83
2022/01/08 00:16:10;;;;;;;5.38;3.42;;;;;;;-1.91;100.00;92447.03;2090871;28;20025;-80
2022/01/08 00:17:13;;;;;;;4.13;3.17;;;;;;;-1.94;100.00;92447.75;2106691;28;20107;-82
2022/01/08 00:18:16;;;;;;;3.67;3.35;;;;;;;-1.88;100.00;92443.72;2106712;28;20074;-82
2022/01/08 00:19:17;;;;;;;4.40;3.17;;;;;;;-1.75;100.00;92439.03;2106783;28;20089;-82
2022/01/08 00:20:18;;;;;;;3.30;3.00;;;;;;;-1.89;100.00;92434.34;2098199;28;20099;-82
2022/01/08 00:21:20;;;;;;;4.63;3.72;;;;;;;-1.78;100.00;92430.75;2098164;28;20111;-83
2022/01/08 00:22:21;;;;;;;3.97;3.22;;;;;;;-1.76;100.00;92425.16;2081661;28;20045;-82
2022/01/08 00:23:22;;;;;;;3.28;2.97;;;;;;;-1.86;100.00;92425.78;2099837;28;20116;-82
2022/01/08 00:24:23;;;;;;;3.95;3.30;;;;;;;-1.94;100.00;92430.16;2089922;28;20443;-82
2022/01/08 00:25:24;;;;;;;3.88;2.90;;;;;;;-1.84;100.00;92426.19;2089900;28;20470;-81
2022/01/08 00:26:25;;;;;;;3.33;3.03;;;;;;;-1.89;100.00;92416.00;2103327;28;20092;-83
2022/01/08 00:27:26;;;;;;;5.43;3.40;;;;;;;-1.94;100.00;92416.31;2099324;28;20059;-82
2022/01/08 00:28:29;;;;;;;3.58;3.08;;;;;;;-2.10;100.00;92416.50;2109141;28;20106;-84
2022/01/08 00:29:32;;;;;;;5.20;3.15;;;;;;;-1.99;100.00;92421.88;2095430;28;20020;-83
2022/01/08 00:30:35;;;;;;;2.78;2.58;;;;;;;-1.76;100.00;92417.28;2110356;28;20028;-83
2022/01/08 00:31:36;;;;;;;3.83;2.88;;;;;;;-1.76;100.00;92419.91;2114762;28;20513;-82
2022/01/08 00:32:37;;;;;;;4.47;3.22;;;;;;;-1.83;100.00;92419.84;2098011;28;20024;-82
2022/01/08 00:33:38;;;;;;;4.95;2.90;;;;;;;-1.69;100.00;92422.63;2098215;28;20028;-83
2022/01/08 00:34:39;;;;;;;4.07;2.70;;;;;;;-1.53;100.00;92425.84;2098256;28;20077;-83
2022/01/08 00:35:42;;;;;;;2.80;2.60;;;;;;;-1.72;100.00;92420.72;2098098;28;20377;-83
2022/01/08 00:36:44;;;;;;;3.72;2.95;;;;;;;-1.72;100.00;92430.44;2098687;28;20024;-82
2022/01/08 00:37:46;;;;;;;5.25;2.88;;;;;;;-1.86;100.00;92433.63;2098340;28;20017;-84
2022/01/08 00:38:48;;;;;;;4.10;2.70;;;;;;;-1.70;100.00;92428.25;2098436;28;20020;-83
2022/01/08 00:39:49;;;;;;;2.78;2.45;;;;;;;-1.66;100.00;92426.41;2098373;28;20044;-83
2022/01/08 00:40:50;;;;;;;2.88;2.60;;;;;;;-1.78;100.00;92424.78;2106381;28;20016;-83
2022/01/08 00:41:51;;;;;;;2.50;2.30;;;;;;;-1.84;100.00;92424.34;2106430;28;20357;-82
2022/01/08 00:42:52;;;;;;;3.20;2.83;;;;;;;-1.87;100.00;92411.94;2098047;28;20024;-83
2022/01/08 00:43:54;;;;;;;3.03;2.75;;;;;;;-1.84;100.00;92410.47;2097945;28;20036;-83
2022/01/08 00:44:55;;;;;;;2.95;2.75;;;;;;;-1.79;100.00;92418.78;2098254;28;20600;-83
2022/01/08 00:45:56;;;;;;;2.70;2.50;;;;;;;-1.67;100.00;92423.03;2106307;28;20028;-83
2022/01/08 00:46:56;;;;;;;2.90;2.60;;;;;;;-1.69;100.00;92416.66;2097957;28;20021;-82
2022/01/08 00:48:01;;;;;;;2.80;2.30;;;;;;;-1.55;100.00;92411.56;2106510;28;20108;-83
2022/01/08 00:49:03;;;;;;;2.92;2.25;;;;;;;-1.65;100.00;92412.97;2106795;28;20396;-82
2022/01/08 00:50:05;;;;;;;5.78;2.38;;;;;;;-1.69;100.00;92416.66;2097216;28;20558;-83
2022/01/08 00:51:06;;;;;;;6.93;2.97;;;;;;;-1.58;100.00;92409.66;2106508;28;20062;-83
2022/01/08 00:52:07;;;;;;;2.88;2.38;;;;;;;-1.44;100.00;92396.00;2105856;28;20099;-82
2022/01/08 00:53:16;;;;;;;2.58;2.25;;;;;;;-1.55;100.00;92401.84;2089616;28;20024;-82
2022/01/08 00:54:17;;;;;;;2.63;2.42;;;;;;;-1.61;100.00;92398.03;2090420;28;20104;-84
2022/01/08 00:55:18;;;;;;;3.20;2.70;;;;;;;-1.59;100.00;92397.66;2081559;28;20048;-84
2022/01/08 00:56:19;;;;;;;2.45;2.20;;;;;;;-1.69;100.00;92390.44;2089699;28;20021;-82
2022/01/08 00:57:23;;;;;;;2.35;2.15;;;;;;;-1.86;100.00;92379.38;2089688;28;20039;-82
2022/01/08 00:58:27;;;;;;;2.65;2.33;;;;;;;-1.86;100.00;92379.38;2089910;28;20048;-83
2022/01/08 00:59:28;;;;;;;5.40;2.67;;;;;;;-1.79;100.00;92374.25;2088020;28;20462;-82
2022/01/08 01:00:29;;;;;;;3.97;2.35;;;;;;;-1.48;100.00;92374.22;2097960;28;20020;-82
2022/01/08 01:01:30;;;;;;;2.90;2.60;;;;;;;-1.50;100.00;92377.19;2097913;28;20020;-82
2022/01/08 01:02:31;;;;;;;3.80;2.47;;;;;;;-1.43;100.00;92361.53;2098059;28;20020;-83
2022/01/08 01:03:32;;;;;;;2.72;2.40;;;;;;;-1.56;100.00;92362.91;2097816;28;20043;-82
2022/01/08 01:04:37;;;;;;;2.95;2.60;;;;;;;-1.47;100.00;92366.00;2097760;28;20024;-81
2022/01/08 01:05:37;;;;;;;3.88;2.60;;;;;;;-1.21;100.00;92361.78;2107403;27;20030;-83
2022/01/08 01:06:38;;;;;;;2.58;2.22;;;;;;;-1.32;100.00;92349.31;2114321;28;20043;-81
2022/01/08 01:07:40;;;;;;;3.95;2.65;;;;;;;-1.34;100.00;92359.41;2097748;28;20456;-84
2022/01/08 01:08:40;;;;;;;2.55;2.30;;;;;;;-1.20;100.00;92364.03;2106246;28;20024;-83
2022/01/08 01:09:41;;;;;;;3.33;2.25;;;;;;;-1.26;100.00;92365.47;2097454;28;20020;-82
2022/01/08 01:10:42;;;;;;;3.33;2.22;;;;;;;-1.36;100.00;92376.59;2094423;28;20505;-83
2022/01/08 01:11:43;;;;;;;2.90;2.60;;;;;;;-1.41;100.00;92367.16;2106164;28;20066;-82
2022/01/08 01:12:44;;;;;;;3.08;2.33;;;;;;;-1.47;100.00;92373.09;2106288;28;20039;-83
2022/01/08 01:13:51;;;;;;;3.80;2.20;;;;;;;-1.65;100.00;92375.53;2097596;28;20025;-82
2022/01/08 01:14:52;;;;;;;2.85;2.65;;;;;;;-1.67;100.00;92377.72;2091125;28;20032;-82
2022/01/08 01:15:53;;;;;;;2.45;2.20;;;;;;;-1.71;100.00;92366.47;2097799;28;20461;-83
2022/01/08 01:16:54;;;;;;;2.60;2.13;;;;;;;-1.41;100.00;92363.81;2097687;28;20020;-82
2022/01/08 01:17:55;;;;;;;4.03;1.98;;;;;;;-1.42;100.00;92365.66;2097772;28;20039;-82
2022/01/08 01:18:59;;;;;;;2.33;2.10;;;;;;;-1.59;100.00;92363.59;2104643;28;20024;-83
2022/01/08 01:19:59;;;;;;;2.58;2.10;;;;;;;-1.51;100.00;92352.09;2098348;28;20031;-83
2022/01/08 01:21:02;;;;;;;4.13;2.40;;;;;;;-1.42;100.00;92354.44;2090013;28;20040;-82
2022/01/08 01:22:04;;;;;;;5.03;2.38;;;;;;;-1.42;100.00;92349.19;2089961;28;20039;-82
2022/01/08 01:23:15;;;;;;;2.97;1.98;;;;;;;-1.49;100.00;92347.28;2089757;28;20432;-83
2022/01/08 01:24:20;;;;;;;4.03;2.13;;;;;;;-1.52;100.00;92347.97;2092063;28;20029;-83
2022/01/08 01:25:37;;;;;;;3.35;2.30;;;;;;;-1.63;100.00;92342.59;2090617;28;20106;-83
2022/01/08 01:26:46;;;;;;;2.33;2.13;;;;;;;-1.64;100.00;92346.34;2108438;28;20495;-83
2022/01/08 01:28:09;;;;;;;2.63;2.42;;;;;;;-1.63;100.00;92347.09;2122895;27;20027;-83
2022/01/08 01:41:27;;;;;;;2.40;2.17;;;;;;;-1.53;100.00;92336.75;2099986;28;20599;-81
2022/01/08 01:43:04;;;;;;;4.20;2.08;;;;;;;-1.67;100.00;92336.56;2099286;28;20465;-81
2022/01/08 01:47:50;;;;;;;3.00;1.92;;;;;;;-1.40;100.00;92326.78;2111746;27;20391;-83
2022/01/08 01:48:55;;;;;;;3.33;1.98;;;;;;;-1.55;100.00;92328.47;2105861;28;20079;-82
2022/01/08 01:49:56;;;;;;;2.30;1.90;;;;;;;-1.57;100.00;92322.84;2106911;28;20047;-80
2022/01/08 01:50:57;;;;;;;3.72;1.77;;;;;;;-1.49;100.00;92315.03;2107152;28;20054;-82
2022/01/08 01:52:00;;;;;;;2.67;2.00;;;;;;;-1.54;100.00;92314.28;2097429;28;20028;-82
2022/01/08 01:53:01;;;;;;;2.20;2.00;;;;;;;-1.60;100.00;92317.56;2089357;28;20029;-81
2022/01/08 01:54:03;;;;;;;2.33;1.95;;;;;;;-1.62;100.00;92311.94;2097401;28;20573;-81
2022/01/08 01:55:06;;;;;;;2.13;1.95;;;;;;;-1.55;100.00;92312.75;2088032;28;20385;-83
2022/01/08 01:56:07;;;;;;;3.33;2.20;;;;;;;-1.58;100.00;92307.47;2114861;27;20031;-82
2022/01/08 01:57:10;;;;;;;2.33;1.83;;;;;;;-1.59;100.00;92305.97;2118378;27;20016;-82
2022/01/08 01:58:11;;;;;;;3.15;1.90;;;;;;;-1.59;100.00;92301.47;2089543;28;20032;-83
2022/01/08 01:59:13;;;;;;;2.28;2.05;;;;;;;-1.58;100.00;92303.00;2097602;28;20723;-83
2022/01/08 02:00:14;;;;;;;3.45;2.08;;;;;;;-1.58;100.00;92299.59;2105615;28;20020;-82
2022/01/08 02:01:16;;;;;;;2.20;1.90;;;;;;;-1.43;100.00;92297.91;2088827;28;20228;-82
2022/01/08 02:02:17;;;;;;;3.53;2.00;;;;;;;-1.30;100.00;92286.78;2097622;28;20070;-82
2022/01/08 02:03:18;;;;;;;2.67;1.90;;;;;;;-1.32;100.00;92288.25;2105616;28;20027;-82
2022/01/08 02:04:20;;;;;;;1.70;1.60;;;;;;;-1.48;100.00;92291.13;2105794;28;20469;-83
2022/01/08 02:05:21;;;;;;;3.80;2.20;;;;;;;-1.43;100.00;92292.66;2113783;28;20126;-82
2022/01/08 02:06:22;;;;;;;3.35;2.25;;;;;;;-1.44;100.00;92291.16;2092921;28;20024;-84
2022/01/08 02:07:27;;;;;;;2.50;1.85;;;;;;;-1.39;100.00;92285.59;2097300;28;20103;-82
2022/01/08 02:10:10;;;;;;;;;;;;;;;-1.17;100.00;92283.91;2148872;27;20450;-89
2022/01/08 02:11:12;;;;;;;1.27;1.17;;;;;;;-1.17;100.00;92283.91;2130199;27;19917;-87
2022/01/08 02:12:18;;;;;;;3.58;1.92;;;;;;;-1.21;100.00;92280.50;2113258;27;20579;-87
2022/01/08 02:13:24;;;;;;;2.53;1.50;;;;;;;-1.29;100.00;92279.66;2114986;27;20023;-87
2022/01/08 02:14:26;;;;;;;3.25;1.77;;;;;;;-1.39;100.00;92280.34;2114519;27;20032;-87
2022/01/08 02:15:29;;;;;;;1.80;1.70;;;;;;;-1.29;100.00;92275.19;2113645;27;20022;-87
2022/01/08 02:16:31;;;;;;;3.03;1.60;;;;;;;-1.25;100.00;92271.84;2113326;28;20024;-85
2022/01/08 02:17:32;;;;;;;2.08;1.50;;;;;;;-1.29;100.00;92263.94;2104726;28;20102;-86
2022/01/08 02:18:36;;;;;;;2.58;1.50;;;;;;;-1.46;100.00;92262.66;2104743;28;20346;-87
2022/01/08 02:19:38;;;;;;;3.33;1.70;;;;;;;-1.51;100.00;92268.25;2109655;27;20023;-88
2022/01/08 02:20:39;;;;;;;1.83;1.58;;;;;;;-1.56;100.00;92256.22;2113414;28;20015;-87
2022/01/08 02:21:55;;;;;;;2.58;2.10;;;;;;;-1.58;100.00;92257.69;2104697;28;20027;-86
2022/01/08 02:22:56;;;;;;;1.60;1.50;;;;;;;-1.54;100.00;92255.84;2117294;27;20024;-88
2022/01/08 02:23:57;;;;;;;1.98;1.38;;;;;;;-1.32;100.00;92265.44;2113029;28;20020;-87
2022/01/08 02:24:58;;;;;;;2.38;1.70;;;;;;;-1.40;100.00;92257.88;2104870;28;20044;-88
2022/01/08 02:26:04;;;;;;;1.80;1.65;;;;;;;-1.51;100.00;92270.88;2104813;28;20076;-87
2022/01/08 02:27:05;;;;;;;2.28;1.55;;;;;;;-1.58;100.00;92258.47;2113886;27;20062;-88
2022/01/08 02:28:06;;;;;;;1.85;1.67;;;;;;;-1.58;100.00;92262.94;2112888;28;20020;-86
2022/01/08 02:29:14;;;;;;;2.40;1.42;;;;;;;-1.48;100.00;92254.44;2112931;27;20032;-87
2022/01/08 02:30:15;;;;;;;1.40;1.30;;;;;;;-1.57;100.00;92257.34;2113839;28;20019;-87
2022/01/08 02:31:22;;;;;;;1.58;1.48;;;;;;;-1.47;100.00;92253.31;2121490;27;20023;-88
2022/01/08 02:32:27;;;;;;;4.65;1.77;;;;;;;-1.56;100.00;92258.84;2113636;28;20023;-86
2022/01/08 02:33:29;;;;;;;1.98;1.20;;;;;;;-1.56;100.00;92248.38;2105759;28;20043;-86
2022/01/08 02:34:31;;;;;;;2.75;1.30;;;;;;;-1.34;100.00;92248.56;2104657;28;20165;-86
2022/01/08 02:35:33;;;;;;;1.88;1.30;;;;;;;-1.21;100.00;92247.16;2112025;27;20022;-86
2022/01/08 02:36:38;;;;;;;1.40;1.30;;;;;;;-1.40;100.00;92250.00;2121751;27;20084;-86
2022/01/08 02:37:38;;;;;;;1.35;1.05;;;;;;;-1.38;100.00;92239.91;2121256;28;20024;-87
2022/01/08 02:38:40;;;;;;;1.80;1.20;;;;;;;-1.39;100.00;92244.41;2121453;27;20023;-86
2022/01/08 02:39:48;;;;;;;2.10;1.10;;;;;;;-1.34;100.00;92246.69;2112825;28;20024;-86
2022/01/08 02:41:02;;;;;;;2.83;1.00;;;;;;;-1.40;100.00;92239.53;2114965;27;20690;-86
2022/01/08 02:42:11;;;;;;;1.30;1.20;;;;;;;-1.45;100.00;92242.47;2114555;28;20114;-85
2022/01/08 02:43:16;;;;;;;1.83;1.20;;;;;;;-1.19;100.00;92238.94;2111455;27;20036;-85
2022/01/08 02:44:25;;;;;;;1.23;1.10;;;;;;;-1.21;100.00;92241.91;2121802;27;20057;-88
2022/01/08 02:45:33;;;;;;;1.40;1.15;;;;;;;-1.24;100.00;92237.41;2115752;28;20024;-85
2022/01/08 02:46:44;;;;;;;2.00;1.17;;;;;;;-1.25;100.00;92237.75;2113881;28;20027;-86
2022/01/08 02:47:56;;;;;;;3.28;1.02;;;;;;;-1.40;100.00;92236.91;2115000;27;20019;-85
2022/01/08 02:49:01;;;;;;;2.00;1.10;;;;;;;-1.42;100.00;92233.88;2120224;28;20536;-86
2022/01/08 02:50:09;;;;;;;2.17;1.30;;;;;;;-1.32;100.00;92239.22;2128626;27;20026;-86
2022/01/08 02:51:15;;;;;;;1.40;1.30;;;;;;;-1.24;100.00;92226.91;2113867;28;20028;-85
2022/01/08 02:52:23;;;;;;;1.15;1.05;;;;;;;-1.40;100.00;92229.03;2105677;28;20118;-85
2022/01/08 02:53:30;;;;;;;0.90;0.90;;;;;;;-1.36;100.00;92227.97;2107109;27;20027;-85
2022/01/08 02:54:44;;;;;;;1.17;0.80;;;;;;;-1.14;100.00;92213.16;2122999;27;20015;-86
2022/01/08 02:55:52;;;;;;;1.75;0.50;;;;;;;-1.06;100.00;92219.91;2121384;28;20126;-85
2022/01/08 02:57:20;;;;;;;0.47;0.47;;;;;;;-1.16;100.00;92220.59;2106417;28;20480;-87
2022/01/08 02:58:26;;;;;;;0.40;0.30;;;;;;;-0.96;100.00;92231.63;2116507;28;20027;-87
2022/01/08 02:59:34;;;;;;;0.50;0.40;;;;;;;-1.03;100.00;92229.69;2113931;27;20032;-87
2022/01/08 03:00:36;;;;;;;1.40;0.40;;;;;;;-0.81;100.00;92232.47;2114938;27;20016;-86
2022/01/08 03:01:40;;;;;;;0.30;0.30;;;;;;;-1.10;100.00;92227.03;2120851;28;20106;-87
2022/01/08 03:02:52;;;;;;;0.52;0.30;;;;;;;-0.79;100.00;92232.81;2105356;27;20430;-86
2022/01/08 03:03:56;;;;;;;0.30;0.30;;;;;;;-0.91;100.00;92227.91;2114115;28;20034;-88
2022/01/08 03:04:58;;;;;;;1.05;0.30;;;;;;;-0.80;100.00;92228.72;2105123;28;20059;-87
2022/01/08 03:06:00;;;;;;;0.40;0.40;;;;;;;-0.69;100.00;92232.16;2112820;28;20058;-88
2022/01/08 03:07:02;;;;;;;0.20;0.20;;;;;;;-0.88;100.00;92227.16;2107903;28;20543;-89
2022/01/08 03:08:03;;;;;;;0.20;0.20;;;;;;;-0.74;100.00;92231.75;2104514;28;20021;-86
2022/01/08 03:09:04;;;;;;;0.20;0.20;;;;;;;-0.85;100.00;92234.31;2121043;28;20399;-87
2022/01/08 03:10:07;;;;;;;0.22;0.20;;;;;;;-0.70;100.00;92233.28;2112778;28;20044;-88
2022/01/08 03:11:08;;;;;;;0.40;0.40;;;;;;;-0.79;100.00;92233.59;2104308;28;20232;-87
2022/01/08 03:12:09;;;;;;;0.40;0.40;;;;;;;-0.88;100.00;92230.56;2104257;28;20020;-85
2022/01/08 03:13:14;;;;;;;0.43;0.30;;;;;;;-0.69;100.00;92241.91;2112896;28;20096;-87
2022/01/08 03:14:21;;;;;;;0.70;0.30;;;;;;;-0.52;100.00;92221.00;2104863;28;20112;-86
2022/01/08 03:15:30;;;;;;;0.30;0.30;;;;;;;-0.44;100.00;92228.91;2097351;28;20211;-87
2022/01/08 03:16:37;;;;;;;0.38;0.32;;;;;;;-0.77;100.00;92231.34;2113772;28;20024;-87
2022/01/08 03:17:41;;;;;;;0.20;0.20;;;;;;;-0.89;100.00;92236.91;2104933;28;20028;-86
2022/01/08 03:18:42;;;;;;;0.30;0.30;;;;;;;-0.88;100.00;92227.16;2104539;28;20027;-87
2022/01/08 03:19:43;;;;;;;0.30;0.30;;;;;;;-0.73;100.00;92233.25;2112453;28;20093;-86
2022/01/08 03:20:59;;;;;;;0.60;0.30;;;;;;;-0.74;100.00;92218.63;2103466;28;20107;-87
2022/01/08 03:22:03;;;;;;;0.20;0.20;;;;;;;-0.70;100.00;92227.25;2094436;28;20025;-87
2022/01/08 03:23:05;;;;;;;0.60;0.30;;;;;;;-0.89;100.00;92229.03;2091065;28;20025;-87
2022/01/08 03:24:10;;;;;;;1.55;0.38;;;;;;;-1.04;100.00;92212.47;2105264;28;20020;-87
2022/01/08 03:25:15;;;;;;;0.20;0.20;;;;;;;-0.98;100.00;92212.84;2099268;28;20613;-87
2022/01/08 03:26:20;;;;;;;0.30;0.30;;;;;;;-0.99;100.00;92228.97;2099235;28;20020;-88
2022/01/08 03:27:23;;;;;;;1.65;0.30;;;;;;;-0.88;100.00;92229.78;2102795;27;20538;-86
2022/01/08 03:28:27;;;;;;;1.55;0.50;;;;;;;-0.83;100.00;92232.84;2115215;28;20492;-87
2022/01/08 03:29:29;;;;;;;0.30;0.30;;;;;;;-0.68;100.00;92232.91;2107185;28;20023;-87
2022/01/08 03:30:30;;;;;;;0.20;0.20;;;;;;;-0.75;100.00;92236.22;2098684;28;20082;-87
2022/01/08 03:31:32;;;;;;;2.08;0.40;;;;;;;-0.72;100.00;92240.00;2107230;28;20028;-87
2022/01/08 03:32:33;;;;;;;1.75;0.30;;;;;;;-0.69;100.00;92231.41;2107082;27;20019;-86
2022/01/08 03:33:35;;;;;;;0.73;0.38;;;;;;;-0.70;100.00;92235.13;2115184;28;20472;-86
2022/01/08 03:34:36;;;;;;;0.30;0.30;;;;;;;-0.51;100.00;92230.38;2106860;28;20024;-86
2022/01/08 03:35:37;;;;;;;0.25;0.25;;;;;;;-0.59;100.00;92233.34;2098642;28;20020;-87
2022/01/08 03:36:38;;;;;;;1.45;0.30;;;;;;;-0.54;100.00;92236.34;2098443;28;20574;-87
2022/01/08 03:37:39;;;;;;;0.22;0.22;;;;;;;-0.64;100.00;92234.44;2098455;28;20021;-86
2022/01/08 03:38:41;;;;;;;2.13;0.40;;;;;;;-0.51;100.00;92230.38;2094174;28;20024;-87
2022/01/08 03:39:42;;;;;;;0.50;0.50;;;;;;;-0.80;100.00;92223.47;2098957;28;20436;-87
2022/01/08 03:40:44;;;;;;;0.40;0.40;;;;;;;-0.78;100.00;92211.50;2098368;28;20415;-88
2022/01/08 03:41:45;;;;;;;0.30;0.30;;;;;;;-0.86;100.00;92212.56;2098489;28;20024;-85
2022/01/08 03:42:46;;;;;;;0.60;0.50;;;;;;;-0.95;100.00;92211.38;2090361;28;20027;-87
2022/01/08 03:43:47;;;;;;;0.93;0.35;;;;;;;-0.93;100.00;92217.00;2111795;28;20031;-86
2022/01/08 03:44:48;;;;;;;0.38;0.38;;;;;;;-1.00;100.00;92214.34;2115162;28;20016;-87
2022/01/08 03:45:51;;;;;;;1.60;0.40;;;;;;;-0.91;100.00;92210.28;2106665;28;20028;-87
2022/01/08 03:46:52;;;;;;;0.93;0.38;;;;;;;-0.78;100.00;92208.88;2104554;28;20031;-86
2022/01/08 03:48:07;;;;;;;1.88;0.43;;;;;;;-0.61;100.00;92212.72;2098345;28;20107;-86
2022/01/08 03:50:09;;;;;;;1.67;0.40;;;;;;;-0.76;100.00;92205.88;2102464;28;20032;-86
2022/01/08 03:51:12;;;;;;;0.30;0.30;;;;;;;-0.83;100.00;92216.34;2123637;27;20023;-86
2022/01/08 03:52:13;;;;;;;0.30;0.30;;;;;;;-0.90;100.00;92203.91;2115020;28;20110;-85
2022/01/08 03:53:14;;;;;;;0.30;0.30;;;;;;;-0.98;100.00;92202.38;2106770;28;20027;-87
2022/01/08 03:54:15;;;;;;;0.90;0.40;;;;;;;-0.73;100.00;92218.25;2098237;28;20028;-86
2022/01/08 03:55:16;;;;;;;0.57;0.40;;;;;;;-0.75;100.00;92212.63;2100151;28;20044;-87
2022/01/08 03:56:17;;;;;;;1.08;0.30;;;;;;;-0.63;100.00;92217.56;2099156;28;20024;-85
2022/01/08 03:57:18;;;;;;;0.40;0.40;;;;;;;-0.60;100.00;92226.59;2105351;28;20024;-87
2022/01/08 03:58:20;;;;;;;0.28;0.28;;;;;;;-0.41;100.00;92209.78;2106633;28;20138;-86
2022/01/08 03:59:27;;;;;;;1.13;0.50;;;;;;;-0.79;100.00;92217.88;2106925;28;20106;-85
2022/01/08 04:00:28;;;;;;;1.20;0.35;;;;;;;-0.92;100.00;92214.03;2101546;28;20886;-85
2022/01/08 04:01:29;;;;;;;0.57;0.50;;;;;;;-0.77;100.00;92222.75;2098430;28;20115;-86
2022/01/08 04:02:30;;;;;;;0.73;0.43;;;;;;;-0.73;100.00;92214.88;2115120;27;20082;-87
2022/01/08 04:03:31;;;;;;;0.20;0.20;;;;;;;-0.76;100.00;92225.00;2115086;28;20024;-86
2022/01/08 04:04:32;;;;;;;0.60;0.40;;;;;;;-0.97;100.00;92224.09;2106913;28;20031;-86
2022/01/08 04:05:33;;;;;;;0.40;0.40;;;;;;;-0.88;100.00;92229.78;2106545;28;20020;-86
2022/01/08 04:06:34;;;;;;;0.90;0.50;;;;;;;-0.93;100.00;92224.88;2106662;28;20081;-86
2022/01/08 04:07:35;;;;;;;0.95;0.47;;;;;;;-0.92;100.00;92231.63;2106380;28;20089;-86
2022/01/08 04:08:36;;;;;;;1.40;0.40;;;;;;;-0.82;100.00;92234.31;2098182;28;20028;-86
2022/01/08 04:09:37;;;;;;;1.83;0.30;;;;;;;-0.67;100.00;92237.78;2097957;28;20075;-85
2022/01/08 04:10:38;;;;;;;1.20;0.50;;;;;;;-0.84;100.00;92241.03;2098403;28;20031;-86
2022/01/08 04:11:39;;;;;;;0.47;0.40;;;;;;;-0.81;100.00;92242.94;2114938;28;20410;-86
2022/01/08 04:12:44;;;;;;;0.40;0.30;;;;;;;-0.82;100.00;92239.56;2114887;28;20026;-86
2022/01/08 04:13:45;;;;;;;3.08;0.40;;;;;;;-0.93;100.00;92241.38;2107820;27;20081;-85
2022/01/08 04:15:04;;;;;;;1.63;0.50;;;;;;;-0.96;100.00;92236.88;2114895;28;20565;-86
2022/01/08 04:16:15;;;;;;;1.17;0.30;;;;;;;-1.06;100.00;92229.66;2108921;28;20110;-86
2022/01/08 04:17:16;;;;;;;1.27;0.50;;;;;;;-1.06;100.00;92238.28;2109475;27;20114;-87
2022/01/08 04:18:20;;;;;;;0.63;0.38;;;;;;;-0.93;100.00;92246.59;2106399;28;20020;-87
2022/01/08 04:19:21;;;;;;;1.10;0.40;;;;;;;-0.98;100.00;92254.81;2107057;27;20041;-88
2022/01/08 04:20:37;;;;;;;0.38;0.32;;;;;;;-0.90;100.00;92245.13;2106785;28;20523;-85
2022/01/08 04:23:17;;;;;;;0.40;0.40;;;;;;;-0.68;100.00;92252.03;2081321;28;20065;-86
2022/01/08 04:24:21;;;;;;;0.50;0.40;;;;;;;-0.76;100.00;92238.09;2092279;28;20103;-86
2022/01/08 04:25:23;;;;;;;0.40;0.32;;;;;;;-0.78;100.00;92248.22;2090615;28;20032;-85
2022/01/08 04:26:27;;;;;;;1.40;0.47;;;;;;;-0.96;100.00;92243.97;2090272;28;20461;-85
2022/01/08 04:27:28;;;;;;;0.93;0.40;;;;;;;-0.89;100.00;92242.13;2090685;28;20119;-86
2022/01/08 04:28:29;;;;;;;1.17;0.40;;;;;;;-0.76;100.00;92238.09;2089821;28;20025;-86
2022/01/08 04:29:31;;;;;;;0.40;0.32;;;;;;;-0.69;100.00;92239.28;2089646;28;20021;-85
2022/01/08 04:30:35;;;;;;;0.65;0.30;;;;;;;-0.64;100.00;92247.56;2090005;28;20025;-86
2022/01/08 04:31:37;;;;;;;0.45;0.40;;;;;;;-0.58;100.00;92250.56;2098538;28;20020;-85
2022/01/08 04:32:39;;;;;;;0.52;0.30;;;;;;;-0.50;100.00;92244.25;2097853;28;20040;-86
2022/01/08 04:33:40;;;;;;;0.40;0.40;;;;;;;-0.58;100.00;92243.44;2097921;28;20112;-87
2022/01/08 04:34:41;;;;;;;0.30;0.30;;;;;;;-0.69;100.00;92242.66;2098093;28;20024;-87
2022/01/08 04:35:42;;;;;;;0.32;0.32;;;;;;;-0.69;100.00;92236.66;2106389;28;20031;-86
2022/01/08 04:36:43;;;;;;;0.98;0.50;;;;;;;-0.77;100.00;92233.22;2097699;28;20067;-85
2022/01/08 04:37:44;;;;;;;0.47;0.40;;;;;;;-0.66;100.00;92255.06;2097952;28;20024;-87
2022/01/08 04:38:45;;;;;;;1.17;0.30;;;;;;;-0.78;100.00;92242.22;2102849;28;20047;-85
2022/01/08 04:39:46;;;;;;;0.30;0.30;;;;;;;-0.74;100.00;92243.00;2106621;28;20024;-86
2022/01/08 04:40:52;;;;;;;1.65;0.35;;;;;;;-0.78;100.00;92239.59;2106318;28;20032;-86
2022/01/08 04:41:54;;;;;;;0.30;0.30;;;;;;;-0.80;100.00;92252.31;2107714;27;20081;-87
2022/01/08 04:42:55;;;;;;;1.13;0.50;;;;;;;-0.81;100.00;92253.44;2114975;27;20019;-86
2022/01/08 04:43:56;;;;;;;1.17;0.47;;;;;;;-0.84;100.00;92254.91;2106317;28;20040;-86
2022/01/08 04:44:57;;;;;;;0.30;0.30;;;;;;;-0.67;100.00;92261.41;2114775;28;20019;-87
2022/01/08 04:45:58;;;;;;;1.20;0.40;;;;;;;-0.59;100.00;92259.56;2114612;28;20076;-86
2022/01/08 04:46:59;;;;;;;0.82;0.40;;;;;;;-0.66;100.00;92262.94;2106251;28;20035;-86
2022/01/08 04:48:01;;;;;;;0.30;0.30;;;;;;;-0.72;100.00;92261.00;2106191;28;20690;-87
2022/01/08 04:49:02;;;;;;;3.35;3.05;;;;;;;-0.48;100.00;92257.78;2106605;28;20488;-87
2022/01/08 04:50:04;;;;;;;1.00;0.95;;;;;;;-0.65;100.00;92271.53;2106218;28;20020;-88
2022/01/08 04:51:05;;;;;;;0.43;0.43;;;;;;;-0.76;100.00;92274.09;2106424;28;20055;-86
2022/01/08 04:52:06;;;;;;;1.77;0.90;;;;;;;-0.64;100.00;92284.28;2106237;28;20027;-87
2022/01/08 04:53:07;;;;;;;0.82;0.40;;;;;;;-0.67;100.00;92285.00;2101954;28;20076;-86
2022/01/08 04:54:08;;;;;;;1.23;1.10;;;;;;;-0.54;100.00;92288.84;2099363;28;20020;-86
2022/01/08 04:55:09;;;;;;;0.38;0.38;;;;;;;-0.60;100.00;92287.69;2101910;28;20069;-86
2022/01/08 04:56:10;;;;;;;0.60;0.22;;;;;;;-0.66;100.00;92281.28;2097829;28;20025;-86
2022/01/08 04:57:11;;;;;;;1.35;0.43;;;;;;;-0.74;100.00;92281.59;2097863;28;20498;-86
2022/01/08 04:58:12;;;;;;;1.17;0.50;;;;;;;-0.73;100.00;92280.47;2097862;28;20051;-87
2022/01/08 04:59:13;;;;;;;0.40;0.40;;;;;;;-0.84;100.00;92290.88;2106723;28;20027;-86
2022/01/08 05:00:17;;;;;;;0.63;0.63;;;;;;;-0.69;100.00;92297.00;2114593;28;20030;-86
2022/01/08 05:01:30;;;;;;;1.23;0.40;;;;;;;-0.74;100.00;92311.22;2106514;28;20020;-86
2022/01/08 05:02:31;;;;;;;1.02;0.50;;;;;;;-0.69;100.00;92300.38;2101030;28;20016;-86
2022/01/08 05:03:32;;;;;;;1.05;0.57;;;;;;;-0.69;100.00;92294.38;2097834;28;20032;-86
2022/01/08 05:04:33;;;;;;;0.65;0.55;;;;;;;-0.66;100.00;92304.91;2106058;28;20024;-86
2022/01/08 05:05:34;;;;;;;0.38;0.38;;;;;;;-0.80;100.00;92305.53;2105993;28;20182;-86
2022/01/08 05:06:37;;;;;;;0.90;0.50;;;;;;;-0.67;100.00;92313.88;2106059;28;20016;-87
2022/01/08 05:07:41;;;;;;;0.55;0.55;;;;;;;-0.71;100.00;92310.47;2097940;28;20024;-87
2022/01/08 05:08:42;;;;;;;0.57;0.30;;;;;;;-0.58;100.00;92324.06;2098196;28;20024;-86
2022/01/08 05:09:43;;;;;;;0.50;0.50;;;;;;;-0.66;100.00;92325.91;2089287;28;20074;-87
2022/01/08 05:10:44;;;;;;;1.48;1.38;;;;;;;-0.58;100.00;92331.94;2102201;28;20024;-86
2022/01/08 05:11:46;;;;;;;0.50;0.50;;;;;;;-0.67;100.00;92334.88;2106008;28;20035;-86
2022/01/08 05:12:48;;;;;;;3.33;3.05;;;;;;;-0.76;100.00;92343.06;2097933;28;20488;-87
2022/01/08 05:13:50;;;;;;;0.75;0.75;;;;;;;-0.85;100.00;92347.09;2097719;28;20024;-87